Time;durP1;ratioP1;P1;durP2;ratioP2;P2;SDS_P1;SDS_P2;PMS_P1;PMS_P2;Temp;Humidity;BMP_temperature;BMP_pressure;BME280_temperature;BME280_humidity;BME280_pressure;Samples;Min_cycle;Max_cycle;Signal;HPM_P1;HPM_P2
2023/05/16 00:01:49;;;;;;;14.10;2.67;;;9.40;99.90;;;;;;4994211;28;20112;-80
2023/05/16 00:04:35;;;;;;;17.65;2.00;;;9.40;99.90;;;;;;5011815;28;20073;-78
2023/05/16 00:07:21;;;;;;;7.03;1.45;;;9.40;99.90;;;;;;4993872;28;20061;-78
2023/05/16 00:10:08;;;;;;;9.82;1.95;;;9.30;99.90;;;;;;4993284;28;20107;-78
2023/05/16 00:12:55;;;;;;;11.65;2.05;;;9.40;99.90;;;;;;5011402;28;20086;-78
2023/05/16 00:15:43;;;;;;;15.40;2.25;;;9.40;99.90;;;;;;4994773;28;20236;-80
2023/05/16 00:18:29;;;;;;;16.13;2.25;;;9.40;99.90;;;;;;5012004;28;20054;-78
2023/05/16 00:21:15;;;;;;;11.68;2.42;;;9.40;99.90;;;;;;4997160;28;20053;-80
2023/05/16 00:24:02;;;;;;;13.90;3.00;;;9.30;99.90;;;;;;4996049;28;20065;-81
2023/05/16 00:26:49;;;;;;;9.20;1.65;;;9.30;99.90;;;;;;4979914;28;20864;-81
2023/05/16 00:29:35;;;;;;;18.13;2.15;;;9.40;99.90;;;;;;5010999;28;20050;-81
2023/05/16 00:32:22;;;;;;;13.77;2.70;;;9.40;99.90;;;;;;4966964;28;20498;-81
2023/05/16 00:35:10;;;;;;;9.40;1.60;;;9.30;99.90;;;;;;4978750;28;20045;-80
2023/05/16 00:38:00;;;;;;;15.80;2.42;;;9.30;99.90;;;;;;4993818;28;20050;-80
2023/05/16 00:40:48;;;;;;;16.50;2.13;;;9.40;99.90;;;;;;4993054;28;20089;-80
2023/05/16 00:43:34;;;;;;;12.90;2.45;;;9.30;99.90;;;;;;4993286;28;20072;-81
2023/05/16 00:46:25;;;;;;;16.33;2.05;;;9.30;99.90;;;;;;4993260;28;20061;-80
2023/05/16 00:49:11;;;;;;;13.35;2.35;;;9.30;99.90;;;;;;4992753;28;20057;-81
2023/05/16 00:51:58;;;;;;;9.40;2.00;;;9.30;99.90;;;;;;4992588;28;20050;-80
2023/05/16 00:54:44;;;;;;;14.25;2.30;;;9.30;99.90;;;;;;4992091;28;20053;-80
2023/05/16 00:57:30;;;;;;;16.88;2.45;;;9.30;99.90;;;;;;4991247;28;20058;-80
2023/05/16 01:00:18;;;;;;;14.63;2.17;;;9.30;99.90;;;;;;4996852;28;20046;-79
2023/05/16 01:03:05;;;;;;;8.57;2.17;;;9.30;99.90;;;;;;4979566;28;20140;-79
2023/05/16 01:05:52;;;;;;;12.75;2.92;;;9.30;99.90;;;;;;4980396;28;20494;-80
2023/05/16 01:08:39;;;;;;;15.50;2.55;;;9.30;99.90;;;;;;4992227;28;20553;-80
2023/05/16 01:11:58;;;;;;;12.85;2.70;;;9.30;99.90;;;;;;4979343;28;20053;-78
2023/05/16 01:14:45;;;;;;;14.20;2.33;;;9.30;99.90;;;;;;4993352;28;20085;-80
2023/05/16 01:17:56;;;;;;;11.80;2.10;;;9.30;99.90;;;;;;4993608;28;20087;-79
2023/05/16 01:21:03;;;;;;;16.67;2.28;;;9.30;99.90;;;;;;4997036;28;20060;-80
2023/05/16 01:24:42;;;;;;;14.93;3.50;;;9.30;99.90;;;;;;4992564;28;20046;-80
2023/05/16 01:27:30;;;;;;;13.18;2.28;;;9.30;99.90;;;;;;4991375;28;20113;-81
2023/05/16 01:30:18;;;;;;;22.05;4.03;;;9.30;99.90;;;;;;4977516;28;20085;-80
2023/05/16 01:33:05;;;;;;;19.20;2.35;;;9.30;99.90;;;;;;4993168;28;20469;-80
2023/05/16 01:36:25;;;;;;;17.55;3.22;;;9.30;99.90;;;;;;4992337;28;20061;-78
2023/05/16 01:39:35;;;;;;;14.77;2.10;;;9.30;99.90;;;;;;4992213;28;20145;-79
2023/05/16 01:42:24;;;;;;;9.32;2.25;;;9.40;99.90;;;;;;5010449;28;20049;-80
2023/05/16 01:45:28;;;;;;;12.45;1.98;;;9.40;99.90;;;;;;4991991;28;20137;-78
2023/05/16 01:48:19;;;;;;;19.65;2.35;;;9.40;99.90;;;;;;4992825;28;20824;-79
2023/05/16 01:51:06;;;;;;;14.80;2.72;;;9.40;99.90;;;;;;5010303;28;20049;-79
2023/05/16 01:54:04;;;;;;;14.07;2.30;;;9.40;99.90;;;;;;4992783;28;20046;-78
2023/05/16 01:56:55;;;;;;;11.50;2.17;;;9.30;99.90;;;;;;4980580;28;20143;-80
2023/05/16 01:59:46;;;;;;;13.60;2.40;;;9.40;99.90;;;;;;4979012;28;20525;-79
2023/05/16 02:02:32;;;;;;;17.00;2.45;;;9.40;99.90;;;;;;4995417;28;20100;-79
2023/05/16 02:05:18;;;;;;;18.30;2.22;;;9.40;99.90;;;;;;5009000;28;20572;-79
2023/05/16 02:08:04;;;;;;;21.30;3.80;;;9.30;99.90;;;;;;5009976;28;20057;-78
2023/05/16 02:10:54;;;;;;;12.40;2.53;;;9.30;99.90;;;;;;5010211;28;20050;-79
2023/05/16 02:13:41;;;;;;;14.98;1.90;;;9.30;99.90;;;;;;5010335;28;20060;-79
2023/05/16 02:16:30;;;;;;;12.35;2.80;;;9.30;99.90;;;;;;4991382;28;20138;-80
2023/05/16 02:19:16;;;;;;;26.25;3.45;;;9.30;99.90;;;;;;4979239;28;20050;-80
2023/05/16 02:22:02;;;;;;;13.82;2.25;;;9.20;99.90;;;;;;4992947;28;20060;-79
2023/05/16 02:24:48;;;;;;;13.15;2.05;;;9.20;99.90;;;;;;4979507;28;20151;-79
2023/05/16 02:27:35;;;;;;;16.17;3.13;;;9.20;99.90;;;;;;4979737;28;20571;-79
2023/05/16 02:30:21;;;;;;;16.98;2.00;;;9.20;99.90;;;;;;5009224;28;20560;-78
2023/05/16 02:33:07;;;;;;;11.05;1.67;;;9.20;99.90;;;;;;4991908;28;20053;-80
2023/05/16 02:35:54;;;;;;;9.15;1.63;;;9.20;99.90;;;;;;4977345;28;20387;-79
2023/05/16 02:38:41;;;;;;;11.65;1.63;;;9.20;99.90;;;;;;4991552;28;20050;-78
2023/05/16 02:41:27;;;;;;;15.32;1.80;;;9.20;99.90;;;;;;4979667;28;20057;-79
2023/05/16 02:44:13;;;;;;;12.73;2.55;;;9.20;99.90;;;;;;5013699;28;20490;-78
2023/05/16 02:46:59;;;;;;;15.90;2.17;;;9.20;99.90;;;;;;4994514;28;20053;-79
2023/05/16 02:49:45;;;;;;;14.50;2.20;;;9.20;99.90;;;;;;4981964;28;20145;-79
2023/05/16 02:52:35;;;;;;;14.02;2.72;;;9.10;99.90;;;;;;4995164;28;20061;-78
2023/05/16 02:55:20;;;;;;;10.82;2.45;;;9.10;99.90;;;;;;4981132;28;20135;-79
2023/05/16 02:58:10;;;;;;;8.43;2.40;;;9.20;99.90;;;;;;4995611;28;20057;-79
2023/05/16 03:00:57;;;;;;;11.68;1.73;;;9.20;99.90;;;;;;4981132;28;20494;-78
2023/05/16 03:03:46;;;;;;;13.88;2.83;;;9.20;99.90;;;;;;5013654;28;20050;-79
2023/05/16 03:06:33;;;;;;;10.35;1.58;;;9.20;99.90;;;;;;4995404;28;20066;-79
2023/05/16 03:09:19;;;;;;;14.13;2.70;;;9.10;99.90;;;;;;4981085;28;20053;-79
2023/05/16 03:12:05;;;;;;;12.60;1.77;;;9.10;99.90;;;;;;4994454;28;20078;-79
2023/05/16 03:14:52;;;;;;;14.93;1.70;;;9.10;99.90;;;;;;4993256;28;20045;-80
2023/05/16 03:17:40;;;;;;;8.38;1.58;;;9.10;99.90;;;;;;4981611;28;20050;-79
2023/05/16 03:20:26;;;;;;;12.98;2.55;;;9.10;99.90;;;;;;4997242;28;20046;-79
2023/05/16 03:23:12;;;;;;;8.43;3.45;;;9.10;99.90;;;;;;4994503;28;20049;-79
2023/05/16 03:25:58;;;;;;;13.05;1.88;;;9.10;99.90;;;;;;4994230;28;20447;-80
2023/05/16 03:28:44;;;;;;;16.10;2.30;;;9.10;99.90;;;;;;4997406;28;20088;-79
2023/05/16 03:31:31;;;;;;;8.98;1.55;;;9.20;99.90;;;;;;5012722;28;20539;-79
2023/05/16 03:34:17;;;;;;;11.52;1.52;;;9.10;99.90;;;;;;4998388;28;20535;-79
2023/05/16 03:37:03;;;;;;;14.70;1.75;;;9.10;99.90;;;;;;5012335;28;20042;-78
2023/05/16 03:39:49;;;;;;;11.38;1.95;;;9.20;99.90;;;;;;5012345;28;20050;-80
2023/05/16 03:42:35;;;;;;;12.18;1.67;;;9.20;99.90;;;;;;5011594;28;20104;-80
2023/05/16 03:45:22;;;;;;;17.02;3.15;;;9.10;99.90;;;;;;4994232;28;20402;-79
2023/05/16 03:48:09;;;;;;;11.55;1.90;;;9.10;99.90;;;;;;5011897;28;20049;-79
2023/05/16 03:50:56;;;;;;;13.52;2.13;;;9.10;99.90;;;;;;4992534;28;20061;-79
2023/05/16 03:53:42;;;;;;;14.13;2.08;;;9.10;99.90;;;;;;5011171;28;20075;-79
2023/05/16 03:56:28;;;;;;;12.90;1.83;;;9.10;99.90;;;;;;5010787;28;20422;-79
2023/05/16 03:59:14;;;;;;;7.95;1.60;;;9.10;99.90;;;;;;4993553;28;20056;-80
2023/05/16 04:02:00;;;;;;;16.17;1.88;;;9.20;99.90;;;;;;4994255;28;20060;-78
2023/05/16 04:04:46;;;;;;;10.70;2.00;;;9.20;99.90;;;;;;4994812;28;20061;-79
2023/05/16 04:07:32;;;;;;;12.82;2.72;;;9.30;99.90;;;;;;4993598;28;20057;-78
2023/05/16 04:10:18;;;;;;;13.35;1.50;;;9.20;99.90;;;;;;5011650;28;20050;-79
2023/05/16 04:13:04;;;;;;;10.75;1.55;;;9.30;99.90;;;;;;4993968;28;20139;-79
2023/05/16 04:15:50;;;;;;;11.15;1.92;;;9.20;99.90;;;;;;5010757;28;20530;-79
2023/05/16 04:18:36;;;;;;;15.00;2.10;;;9.30;99.90;;;;;;5011022;28;20077;-79
2023/05/16 04:21:22;;;;;;;14.23;1.65;;;9.40;99.90;;;;;;4997237;28;20137;-79
2023/05/16 04:24:08;;;;;;;14.95;2.30;;;9.40;99.90;;;;;;5011281;28;20446;-80
2023/05/16 04:26:55;;;;;;;12.20;1.55;;;9.40;99.90;;;;;;5003700;28;20050;-80
2023/05/16 04:29:41;;;;;;;13.23;2.53;;;9.50;99.90;;;;;;4993324;28;20048;-80
2023/05/16 04:32:27;;;;;;;9.55;1.48;;;9.60;99.90;;;;;;4994766;28;20053;-79
2023/05/16 04:35:13;;;;;;;16.58;2.28;;;9.60;99.90;;;;;;4998098;28;20053;-79
2023/05/16 04:37:59;;;;;;;12.73;1.80;;;9.60;99.90;;;;;;4992220;28;20053;-80
2023/05/16 04:40:45;;;;;;;8.63;1.35;;;9.60;99.90;;;;;;5010366;28;20057;-79
2023/05/16 04:43:32;;;;;;;11.45;2.00;;;9.60;99.90;;;;;;5011462;28;20490;-80
2023/05/16 04:46:19;;;;;;;11.57;1.77;;;9.60;99.90;;;;;;4994456;28;20077;-80
2023/05/16 04:49:05;;;;;;;6.90;1.55;;;9.60;99.90;;;;;;4992262;28;20058;-80
2023/05/16 04:51:51;;;;;;;14.05;1.95;;;9.60;99.90;;;;;;5011611;28;20061;-79
2023/05/16 04:54:38;;;;;;;14.23;1.88;;;9.70;99.90;;;;;;4994219;28;20517;-79
2023/05/16 04:57:24;;;;;;;10.35;1.63;;;9.70;99.90;;;;;;4992620;28;20129;-80
2023/05/16 05:00:12;;;;;;;13.77;1.27;;;9.80;99.90;;;;;;4969433;28;20065;-80
2023/05/16 05:02:58;;;;;;;10.35;1.67;;;9.80;99.90;;;;;;4973561;28;20050;-83
2023/05/16 05:05:45;;;;;;;16.33;2.05;;;9.90;99.90;;;;;;4959647;28;20060;-80
2023/05/16 05:08:32;;;;;;;19.00;2.97;;;10.00;99.90;;;;;;4973828;28;20065;-79
2023/05/16 05:11:19;;;;;;;14.85;1.58;;;10.20;99.90;;;;;;4973271;28;20061;-79
2023/05/16 05:14:07;;;;;;;11.63;1.52;;;10.30;99.90;;;;;;4976325;28;20057;-79
2023/05/16 05:16:54;;;;;;;9.73;1.80;;;10.40;99.90;;;;;;4974346;28;20090;-80
2023/05/16 05:19:40;;;;;;;7.68;1.83;;;10.40;99.90;;;;;;4973687;28;20058;-80
2023/05/16 05:22:26;;;;;;;10.05;1.48;;;10.30;99.90;;;;;;4973688;28;20519;-81
2023/05/16 05:25:14;;;;;;;8.90;2.58;;;10.30;99.90;;;;;;4973524;28;20068;-79
2023/05/16 05:28:03;;;;;;;9.77;1.38;;;10.40;99.90;;;;;;4973693;28;20490;-80
2023/05/16 05:30:49;;;;;;;8.63;1.80;;;10.60;99.90;;;;;;4991567;28;20516;-79
2023/05/16 05:33:35;;;;;;;12.30;1.17;;;10.60;99.90;;;;;;4991458;28;20046;-80
2023/05/16 05:36:22;;;;;;;4.68;1.33;;;10.70;99.90;;;;;;4973091;28;20108;-79
2023/05/16 05:39:08;;;;;;;13.95;1.73;;;10.80;99.90;;;;;;4990521;28;20082;-79
2023/05/16 05:42:02;;;;;;;9.15;0.93;;;10.70;99.90;;;;;;4991873;28;20518;-79
2023/05/16 05:44:48;;;;;;;11.48;1.05;;;10.80;99.90;;;;;;4976139;28;20053;-80
2023/05/16 05:47:34;;;;;;;13.00;1.20;;;10.90;99.90;;;;;;4974337;28;20403;-78
2023/05/16 05:50:21;;;;;;;11.88;1.63;;;10.90;99.90;;;;;;4974725;28;20060;-80
2023/05/16 05:53:07;;;;;;;8.68;1.70;;;10.90;99.90;;;;;;4973915;28;20051;-79
2023/05/16 05:55:54;;;;;;;10.60;2.17;;;11.00;99.90;;;;;;4984236;28;20583;-80
2023/05/16 05:58:41;;;;;;;15.98;1.70;;;11.10;99.90;;;;;;4992119;28;20050;-80
2023/05/16 06:01:27;;;;;;;8.77;1.20;;;11.40;99.90;;;;;;4983659;28;20128;-80
2023/05/16 06:04:14;;;;;;;8.68;1.48;;;11.40;99.90;;;;;;4992681;28;20049;-80
2023/05/16 06:07:00;;;;;;;11.68;1.80;;;11.40;99.90;;;;;;4992575;28;20096;-80
2023/05/16 06:09:46;;;;;;;9.73;1.15;;;11.50;99.90;;;;;;4992489;28;20061;-80
2023/05/16 06:12:32;;;;;;;7.57;1.52;;;11.50;99.90;;;;;;4982574;28;20406;-79
2023/05/16 06:15:19;;;;;;;8.90;2.35;;;11.50;99.90;;;;;;4991716;28;20512;-79
2023/05/16 06:18:05;;;;;;;13.80;1.88;;;11.30;99.90;;;;;;4970302;28;20160;-80
2023/05/16 06:20:52;;;;;;;14.85;2.08;;;11.00;99.90;;;;;;5014620;28;20526;-79
2023/05/16 06:23:40;;;;;;;17.73;2.08;;;11.10;99.90;;;;;;4996549;28;20100;-80
2023/05/16 06:26:26;;;;;;;13.48;1.58;;;11.40;99.90;;;;;;5013191;28;20054;-80
2023/05/16 06:29:16;;;;;;;13.32;2.80;;;11.70;99.90;;;;;;4983815;28;20050;-80
2023/05/16 06:32:02;;;;;;;13.55;1.75;;;12.20;99.90;;;;;;4996136;28;20080;-79
2023/05/16 06:34:52;;;;;;;12.50;2.30;;;12.40;99.90;;;;;;5014085;28;20050;-78
2023/05/16 06:37:41;;;;;;;10.60;1.67;;;12.20;99.90;;;;;;4982835;28;20388;-79
2023/05/16 06:40:29;;;;;;;10.80;1.83;;;12.10;99.90;;;;;;4996565;28;20046;-80
2023/05/16 06:43:15;;;;;;;9.45;1.90;;;12.20;99.90;;;;;;5013933;28;20058;-79
2023/05/16 06:46:02;;;;;;;10.75;1.90;;;12.20;99.90;;;;;;4995704;28;20050;-79
2023/05/16 06:48:49;;;;;;;11.15;1.60;;;12.10;99.90;;;;;;4982174;28;20060;-80
2023/05/16 06:51:36;;;;;;;8.82;2.08;;;12.00;99.90;;;;;;4998696;28;20105;-79
2023/05/16 06:54:22;;;;;;;6.80;1.33;;;12.10;99.90;;;;;;4981519;28;20132;-79
2023/05/16 06:57:08;;;;;;;10.48;1.95;;;12.10;99.90;;;;;;4995545;28;20486;-82
2023/05/16 06:59:54;;;;;;;17.15;2.58;;;12.00;99.90;;;;;;4982427;28;20050;-80
2023/05/16 07:02:42;;;;;;;8.95;1.50;;;12.10;99.90;;;;;;4981629;28;20108;-79
2023/05/16 07:05:30;;;;;;;16.33;2.10;;;12.10;99.90;;;;;;4981983;28;20054;-80
2023/05/16 07:08:16;;;;;;;12.15;2.00;;;12.30;99.90;;;;;;4999705;28;20050;-79
2023/05/16 07:11:02;;;;;;;10.52;1.73;;;12.50;99.90;;;;;;4982287;28;20087;-79
2023/05/16 07:13:48;;;;;;;13.15;2.38;;;12.60;99.90;;;;;;5013565;28;20789;-79
2023/05/16 07:16:34;;;;;;;10.02;1.65;;;12.90;99.90;;;;;;4995836;28;20464;-80
2023/05/16 07:19:20;;;;;;;9.60;1.83;;;13.00;99.90;;;;;;4982659;28;20128;-78
2023/05/16 07:22:06;;;;;;;12.32;2.60;;;13.10;99.90;;;;;;5012235;28;20196;-79
2023/05/16 07:24:55;;;;;;;16.17;2.55;;;13.30;99.90;;;;;;4995673;28;20088;-79
2023/05/16 07:27:43;;;;;;;16.40;2.05;;;13.40;99.90;;;;;;4995301;28;20514;-80
2023/05/16 07:30:29;;;;;;;11.00;2.33;;;13.70;99.90;;;;;;5012236;28;20049;-80
2023/05/16 07:33:15;;;;;;;17.13;1.85;;;13.70;99.90;;;;;;5011286;28;20061;-80
2023/05/16 07:36:02;;;;;;;8.30;1.98;;;13.60;99.90;;;;;;4994963;28;20053;-80
2023/05/16 07:38:48;;;;;;;10.63;2.17;;;13.00;99.90;;;;;;4994946;28;20061;-81
2023/05/16 07:41:35;;;;;;;13.50;1.95;;;12.50;99.90;;;;;;4994780;28;20081;-80
2023/05/16 07:44:21;;;;;;;9.13;1.75;;;12.00;99.90;;;;;;4981533;28;20050;-80
2023/05/16 07:47:07;;;;;;;10.10;2.63;;;12.10;99.90;;;;;;5013322;28;20046;-80
2023/05/16 07:49:54;;;;;;;14.57;2.55;;;12.30;99.90;;;;;;5013282;28;20041;-80
2023/05/16 07:52:40;;;;;;;11.10;2.30;;;12.60;99.90;;;;;;4981999;28;20065;-78
2023/05/16 07:55:27;;;;;;;10.93;1.63;;;12.80;99.90;;;;;;5006065;28;20054;-79
2023/05/16 07:58:16;;;;;;;11.93;1.92;;;12.50;99.90;;;;;;4992067;28;20123;-79
2023/05/16 08:01:02;;;;;;;11.75;2.00;;;12.40;99.90;;;;;;4977788;28;20050;-79
2023/05/16 08:03:48;;;;;;;15.13;2.20;;;12.40;99.90;;;;;;4973994;28;20057;-79
2023/05/16 08:06:35;;;;;;;10.45;2.00;;;12.50;99.90;;;;;;4974588;28;20128;-78
2023/05/16 08:09:21;;;;;;;9.13;1.63;;;12.60;99.90;;;;;;4973704;28;20058;-77
2023/05/16 08:12:08;;;;;;;9.85;1.92;;;13.00;99.90;;;;;;4991588;28;20082;-79
2023/05/16 08:14:54;;;;;;;15.32;2.55;;;13.10;99.90;;;;;;4992960;28;20101;-78
2023/05/16 08:17:41;;;;;;;10.75;1.90;;;13.30;99.90;;;;;;4992279;28;20093;-78
2023/05/16 08:20:27;;;;;;;11.10;1.80;;;13.50;99.90;;;;;;4974291;28;20050;-79
2023/05/16 08:23:13;;;;;;;9.90;1.52;;;13.80;99.90;;;;;;4974053;28;20054;-80
2023/05/16 08:26:00;;;;;;;10.45;2.20;;;13.60;99.90;;;;;;4960578;28;20392;-80
2023/05/16 08:28:46;;;;;;;12.52;1.73;;;13.90;99.90;;;;;;4975057;28;20406;-80
2023/05/16 08:31:32;;;;;;;11.60;1.48;;;13.80;99.90;;;;;;4974257;28;20072;-79
2023/05/16 08:34:19;;;;;;;8.20;1.65;;;13.70;99.90;;;;;;4974208;28;20561;-79
2023/05/16 08:37:09;;;;;;;10.32;2.10;;;13.90;99.90;;;;;;4977965;28;20462;-80
2023/05/16 08:39:55;;;;;;;11.80;2.38;;;14.10;99.90;;;;;;4974555;28;20064;-80
2023/05/16 08:42:41;;;;;;;25.05;2.33;;;14.20;99.90;;;;;;4989913;28;20089;-80
2023/05/16 08:45:30;;;;;;;12.02;2.00;;;14.30;99.90;;;;;;4977497;28;20434;-82
2023/05/16 08:48:17;;;;;;;9.85;2.15;;;14.50;99.90;;;;;;4960747;28;20149;-81
2023/05/16 08:51:07;;;;;;;16.33;2.33;;;14.70;99.90;;;;;;4973134;28;20054;-78
2023/05/16 08:54:00;;;;;;;12.88;1.75;;;14.70;99.90;;;;;;4973646;28;20105;-81
2023/05/16 08:56:49;;;;;;;13.35;2.00;;;14.50;99.90;;;;;;4990371;28;20061;-80
2023/05/16 08:59:35;;;;;;;10.20;2.00;;;14.80;99.90;;;;;;4992995;28;20165;-79
2023/05/16 09:02:22;;;;;;;8.80;1.90;;;15.10;99.90;;;;;;4996894;28;20054;-80
2023/05/16 09:05:12;;;;;;;9.88;2.00;;;14.90;99.90;;;;;;4992398;28;20061;-81
2023/05/16 09:07:59;;;;;;;12.18;2.40;;;15.00;99.90;;;;;;5010961;28;20084;-80
2023/05/16 09:10:45;;;;;;;8.57;1.17;;;15.10;99.90;;;;;;4992828;28;20513;-79
2023/05/16 09:13:31;;;;;;;10.35;1.90;;;15.00;99.90;;;;;;4979228;28;20057;-80
2023/05/16 09:16:19;;;;;;;18.50;2.30;;;14.60;99.70;;;;;;5011264;28;20108;-80
2023/05/16 09:19:05;;;;;;;10.02;2.65;;;14.70;99.70;;;;;;4992480;28;20054;-79
2023/05/16 09:21:51;;;;;;;10.25;1.60;;;14.60;99.60;;;;;;4992860;28;20065;-79
2023/05/16 09:24:38;;;;;;;10.50;1.90;;;14.90;99.90;;;;;;5010265;28;20416;-81
2023/05/16 09:27:25;;;;;;;16.15;2.00;;;15.10;99.50;;;;;;4991775;28;20092;-80
2023/05/16 09:30:15;;;;;;;12.05;2.30;;;15.20;99.20;;;;;;5010475;28;20060;-80
2023/05/16 09:33:01;;;;;;;8.93;1.70;;;15.10;98.30;;;;;;4992457;28;20057;-79
2023/05/16 09:35:58;;;;;;;11.63;1.70;;;15.00;99.00;;;;;;4979393;28;20085;-80
2023/05/16 09:38:44;;;;;;;10.05;2.47;;;14.50;98.60;;;;;;4983519;28;20053;-81
2023/05/16 09:45:33;;;;;;;14.73;1.98;;;15.30;97.40;;;;;;5010258;28;20036;-80
2023/05/16 09:48:21;;;;;;;8.77;1.73;;;15.10;97.90;;;;;;5009223;28;20050;-81
2023/05/16 09:51:08;;;;;;;10.20;1.63;;;15.40;97.90;;;;;;5013581;28;20398;-80
2023/05/16 09:53:54;;;;;;;10.68;1.55;;;15.70;97.80;;;;;;4986612;28;20111;-80
2023/05/16 09:56:50;;;;;;;15.18;2.92;;;15.70;96.90;;;;;;4999264;28;20139;-80
2023/05/16 09:59:37;;;;;;;9.57;1.67;;;15.70;96.70;;;;;;4984924;28;20060;-80
2023/05/16 10:02:25;;;;;;;12.73;1.73;;;15.60;96.40;;;;;;4984514;28;20050;-81
2023/05/16 10:05:14;;;;;;;12.40;2.38;;;15.90;96.80;;;;;;4984847;28;20417;-80
2023/05/16 10:08:03;;;;;;;15.45;3.42;;;16.10;96.70;;;;;;5003141;28;20085;-81
2023/05/16 10:10:53;;;;;;;9.55;1.73;;;16.20;96.60;;;;;;4999801;28;20042;-80
2023/05/16 10:13:39;;;;;;;8.75;1.95;;;16.30;96.00;;;;;;4997640;28;20050;-81
2023/05/16 10:16:25;;;;;;;9.45;2.08;;;16.10;96.10;;;;;;5016722;28;20099;-81
2023/05/16 10:19:13;;;;;;;11.18;1.95;;;16.60;96.50;;;;;;4985986;28;20046;-81
2023/05/16 10:22:05;;;;;;;10.32;1.80;;;16.80;96.20;;;;;;5016762;28;20050;-81
2023/05/16 10:24:59;;;;;;;11.32;2.13;;;16.80;95.10;;;;;;5012137;28;20482;-80
2023/05/16 10:27:46;;;;;;;5.38;1.38;;;16.80;94.90;;;;;;5014712;28;20502;-80
2023/05/16 10:30:34;;;;;;;12.48;2.70;;;16.90;95.20;;;;;;5015840;28;20506;-81
2023/05/16 10:33:20;;;;;;;10.25;1.77;;;16.90;95.50;;;;;;5000561;28;20053;-80
2023/05/16 10:36:10;;;;;;;9.77;2.30;;;16.80;96.00;;;;;;5016589;28;20111;-82
2023/05/16 10:38:58;;;;;;;13.05;2.88;;;16.80;95.10;;;;;;4998198;28;20486;-82
2023/05/16 10:42:22;;;;;;;9.90;2.15;;;16.90;94.80;;;;;;4998950;28;20642;-81
2023/05/16 10:45:27;;;;;;;14.85;2.28;;;17.30;94.50;;;;;;5016732;28;20544;-82
2023/05/16 10:48:14;;;;;;;12.52;1.52;;;17.60;94.70;;;;;;4984151;28;20046;-81
2023/05/16 10:51:02;;;;;;;13.77;1.83;;;17.80;94.70;;;;;;4985240;28;20061;-80
2023/05/16 10:53:52;;;;;;;9.55;2.30;;;18.00;94.60;;;;;;5016556;28;20046;-82
2023/05/16 10:56:38;;;;;;;12.23;1.85;;;17.60;95.00;;;;;;5015649;28;20088;-82
2023/05/16 10:59:26;;;;;;;8.40;2.35;;;17.50;95.50;;;;;;4998187;28;20380;-80
2023/05/16 11:02:32;;;;;;;8.75;1.35;;;17.10;96.00;;;;;;4996337;28;20403;-81
2023/05/16 11:05:18;;;;;;;9.02;1.70;;;17.20;95.10;;;;;;4996892;28;20045;-80
2023/05/16 11:08:05;;;;;;;9.45;1.63;;;17.30;95.00;;;;;;5013015;28;20797;-80
2023/05/16 11:11:37;;;;;;;11.50;1.90;;;17.50;95.10;;;;;;4996449;28;20116;-79
2023/05/16 11:14:27;;;;;;;12.65;2.30;;;17.60;93.90;;;;;;5013364;28;20049;-79
2023/05/16 11:17:20;;;;;;;13.60;2.20;;;18.10;94.90;;;;;;4995759;28;20453;-79
2023/05/16 11:20:09;;;;;;;10.00;1.83;;;17.80;94.40;;;;;;4995179;28;20140;-80
2023/05/16 11:23:15;;;;;;;10.82;2.30;;;17.50;93.90;;;;;;4981372;28;20049;-79
2023/05/16 11:26:02;;;;;;;11.88;2.22;;;17.50;94.40;;;;;;4995764;28;20049;-79
2023/05/16 11:28:49;;;;;;;10.15;2.05;;;17.60;94.50;;;;;;4995796;28;20494;-80
2023/05/16 11:31:36;;;;;;;9.30;1.88;;;17.60;94.30;;;;;;4995400;28;20137;-80
2023/05/16 11:34:23;;;;;;;8.00;1.98;;;17.60;94.10;;;;;;4997566;28;20505;-80
2023/05/16 11:37:10;;;;;;;10.55;2.45;;;17.90;93.70;;;;;;4994565;28;20197;-80
2023/05/16 11:40:00;;;;;;;11.43;1.98;;;18.30;93.10;;;;;;4980888;28;20092;-80
2023/05/16 11:42:47;;;;;;;12.25;1.90;;;18.30;92.40;;;;;;5003612;28;20403;-80
2023/05/16 11:45:33;;;;;;;8.50;2.00;;;17.90;92.20;;;;;;4994993;28;20050;-81
2023/05/16 11:48:22;;;;;;;10.02;2.53;;;17.60;93.30;;;;;;4994626;28;20057;-80
2023/05/16 11:51:17;;;;;;;14.15;3.10;;;17.30;94.10;;;;;;4983431;28;20116;-80
2023/05/16 11:54:04;;;;;;;7.45;2.10;;;17.80;93.50;;;;;;4988870;28;20054;-80
2023/05/16 11:56:51;;;;;;;11.55;2.80;;;18.00;93.00;;;;;;4996094;28;20120;-79
2023/05/16 11:59:37;;;;;;;8.23;2.55;;;17.70;92.70;;;;;;4982285;28;20049;-80
2023/05/16 12:02:23;;;;;;;11.20;2.67;;;17.80;93.00;;;;;;4982221;28;20414;-79
2023/05/16 12:05:10;;;;;;;7.63;2.78;;;17.60;93.10;;;;;;4967696;28;20509;-79
2023/05/16 12:07:59;;;;;;;13.38;3.00;;;17.30;93.40;;;;;;4981137;28;20088;-79
2023/05/16 12:10:45;;;;;;;14.25;3.00;;;16.40;94.20;;;;;;5011142;28;20536;-80
2023/05/16 12:13:31;;;;;;;8.43;2.53;;;16.10;96.80;;;;;;4993520;28;20086;-80
2023/05/16 12:16:17;;;;;;;9.88;2.42;;;15.80;98.70;;;;;;4980935;28;20060;-80
2023/05/16 12:19:08;;;;;;;8.90;2.30;;;15.60;99.40;;;;;;4980692;28;20080;-80
2023/05/16 12:21:54;;;;;;;12.27;2.28;;;15.70;99.90;;;;;;4994508;28;20128;-79
2023/05/16 12:24:40;;;;;;;10.63;2.55;;;16.10;99.90;;;;;;4993533;28;20080;-80
2023/05/16 12:27:27;;;;;;;7.20;1.85;;;16.50;99.60;;;;;;4980701;28;20054;-79
2023/05/16 12:30:15;;;;;;;11.27;2.10;;;16.70;97.30;;;;;;4995110;28;20065;-80
2023/05/16 12:33:12;;;;;;;5.45;1.88;;;16.90;96.40;;;;;;5011348;28;20076;-79
2023/05/16 12:36:00;;;;;;;11.35;1.83;;;17.50;95.20;;;;;;5011043;28;20457;-78
2023/05/16 12:38:47;;;;;;;9.65;1.75;;;17.50;94.40;;;;;;4980475;28;20088;-79
2023/05/16 12:41:41;;;;;;;8.20;1.98;;;17.50;93.10;;;;;;4993866;28;20417;-78
2023/05/16 12:44:29;;;;;;;7.07;1.85;;;17.30;93.00;;;;;;4993107;28;20046;-81
2023/05/16 12:47:15;;;;;;;5.40;1.92;;;17.10;93.20;;;;;;5010581;28;20073;-78
2023/05/16 12:50:01;;;;;;;10.00;2.58;;;16.40;93.90;;;;;;4996751;28;20053;-79
2023/05/16 12:52:49;;;;;;;6.05;1.38;;;16.00;95.30;;;;;;4992904;28;20061;-79
2023/05/16 12:55:36;;;;;;;7.07;1.52;;;15.40;97.20;;;;;;4979620;28;20045;-79
2023/05/16 12:58:22;;;;;;;6.63;1.50;;;15.00;98.30;;;;;;4993422;28;20057;-79
2023/05/16 13:01:08;;;;;;;9.43;2.63;;;14.60;98.90;;;;;;4979455;28;20049;-79
2023/05/16 13:03:54;;;;;;;9.20;2.42;;;15.00;99.90;;;;;;4979498;28;20046;-79
2023/05/16 13:06:41;;;;;;;8.10;2.53;;;15.50;99.90;;;;;;5009939;28;20057;-80
2023/05/16 13:09:27;;;;;;;10.70;2.30;;;15.80;99.30;;;;;;4993201;28;20049;-80
2023/05/16 13:12:14;;;;;;;9.00;2.35;;;15.60;98.90;;;;;;4981092;28;20502;-80
2023/05/16 13:15:00;;;;;;;13.80;3.20;;;15.50;99.30;;;;;;4995927;28;20049;-79
2023/05/16 13:17:47;;;;;;;11.57;2.88;;;15.20;99.30;;;;;;5010566;28;20056;-78
2023/05/16 13:20:33;;;;;;;11.20;3.08;;;14.90;99.90;;;;;;4993282;28;20123;-78
2023/05/16 13:23:22;;;;;;;13.02;3.17;;;14.60;99.90;;;;;;5011303;28;20042;-79
2023/05/16 13:26:08;;;;;;;11.88;2.20;;;14.40;99.90;;;;;;5010537;28;20046;-80
2023/05/16 13:28:55;;;;;;;7.53;2.70;;;14.60;99.90;;;;;;4993273;28;20244;-79
2023/05/16 13:31:40;;;;;;;10.65;2.47;;;14.90;99.90;;;;;;4993843;28;20079;-79
2023/05/16 13:34:27;;;;;;;8.98;2.55;;;14.90;99.90;;;;;;4992581;28;20054;-80
2023/05/16 13:37:13;;;;;;;14.00;3.30;;;14.70;99.90;;;;;;4997588;28;20049;-80
2023/05/16 13:39:59;;;;;;;9.70;2.72;;;14.50;99.90;;;;;;5009746;28;20049;-79
2023/05/16 13:42:45;;;;;;;10.23;2.80;;;14.20;99.90;;;;;;4992370;28;20466;-79
2023/05/16 13:45:31;;;;;;;10.27;2.35;;;14.30;99.90;;;;;;4995770;28;20050;-79
2023/05/16 13:48:17;;;;;;;8.95;2.25;;;14.50;99.90;;;;;;5009788;28;20046;-81
2023/05/16 13:51:02;;;;;;;20.48;3.45;;;14.90;99.90;;;;;;4993131;28;20527;-79
2023/05/16 13:53:50;;;;;;;11.75;2.67;;;14.80;99.90;;;;;;5008332;28;20050;-80
2023/05/16 13:56:39;;;;;;;14.13;2.92;;;15.10;99.90;;;;;;4992655;28;20045;-79
2023/05/16 13:59:28;;;;;;;10.98;2.35;;;16.30;99.90;;;;;;5010224;28;20054;-79
2023/05/16 14:02:14;;;;;;;11.57;2.40;;;16.70;99.50;;;;;;4978711;28;20430;-80
2023/05/16 14:05:00;;;;;;;8.18;2.28;;;17.00;98.40;;;;;;5003785;28;20144;-78
2023/05/16 14:07:49;;;;;;;6.78;1.90;;;17.90;95.30;;;;;;5008010;28;20065;-80
2023/05/16 14:10:35;;;;;;;8.25;1.83;;;18.40;95.00;;;;;;4993046;28;20050;-78
2023/05/16 14:13:21;;;;;;;7.15;1.42;;;19.50;93.30;;;;;;4993220;28;20092;-79
2023/05/16 14:16:07;;;;;;;9.18;2.00;;;19.60;91.70;;;;;;4980575;28;20054;-79
2023/05/16 14:18:53;;;;;;;4.95;1.40;;;20.10;91.10;;;;;;4992265;28;20104;-79
2023/05/16 14:21:42;;;;;;;6.45;1.25;;;20.20;90.40;;;;;;5010242;28;20053;-79
2023/05/16 14:24:29;;;;;;;7.75;1.77;;;20.70;89.10;;;;;;5010701;28;20061;-79
2023/05/16 14:27:15;;;;;;;21.95;3.25;;;20.00;88.60;;;;;;4992016;28;20061;-80
2023/05/16 14:30:01;;;;;;;5.75;1.40;;;18.80;90.30;;;;;;5009992;28;20053;-80
2023/05/16 14:32:48;;;;;;;9.77;1.73;;;18.20;91.40;;;;;;4992181;28;20061;-80
2023/05/16 14:35:34;;;;;;;10.05;1.52;;;17.80;91.80;;;;;;4995395;28;20054;-80